Time;durP1;ratioP1;P1;durP2;ratioP2;P2;SDS_P1;SDS_P2;PMS_P1;PMS_P2;Temp;Humidity;BMP_temperature;BMP_pressure;BME280_temperature;BME280_humidity;BME280_pressure;Samples;Min_cycle;Max_cycle;Signal;HPM_P1;HPM_P2
2021/04/12 00:01:27;;;;;;;;;;;11.90;69.40;;;;;;2061068;28;730;-50
2021/04/12 00:02:47;;;;;;;;;;;11.90;69.40;;;;;;2057817;28;1691;-50
2021/04/12 00:04:08;;;;;;;;;;;11.90;69.50;;;;;;2057468;28;768;-49
2021/04/12 00:05:27;;;;;;;;;;;11.90;69.50;;;;;;2057358;28;748;-50
2021/04/12 00:06:48;;;;;;;;;;;11.90;70.20;;;;;;2063908;28;754;-50
2021/04/12 00:08:28;;;;;;;;;;;11.90;69.50;;;;;;2072946;28;1205;-49
2021/04/12 00:09:50;;;;;;;;;;;11.90;69.50;;;;;;2057393;28;1366;-50
2021/04/12 00:11:09;;;;;;;;;;;11.90;69.50;;;;;;2059521;28;1937;-49
2021/04/12 00:12:47;;;;;;;;;;;11.80;69.50;;;;;;2065812;28;1435;-50
2021/04/12 00:14:25;;;;;;;;;;;11.90;69.60;;;;;;2065996;28;718;-49
2021/04/12 00:15:55;;;;;;;;;;;11.90;69.60;;;;;;2066177;28;733;-49
2021/04/12 00:17:21;;;;;;;;;;;11.80;69.50;;;;;;2065609;28;755;-50
2021/04/12 00:18:43;;;;;;;;;;;11.80;69.50;;;;;;2060839;28;1532;-50
2021/04/12 00:20:08;;;;;;;;;;;11.80;69.50;;;;;;2046519;29;719;-50
2021/04/12 00:21:46;;;;;;;;;;;11.80;70.20;;;;;;2054991;28;697;-49
2021/04/12 00:23:10;;;;;;;;;;;11.80;69.50;;;;;;2057264;28;742;-50
2021/04/12 00:24:43;;;;;;;;;;;11.80;69.50;;;;;;2062703;28;808;-51
2021/04/12 00:26:11;;;;;;;;;;;11.80;69.50;;;;;;2049059;29;721;-49
2021/04/12 00:27:30;;;;;;;;;;;11.80;70.20;;;;;;2055772;28;752;-50
2021/04/12 00:28:54;;;;;;;;;;;11.80;69.50;;;;;;2058879;28;1634;-49
2021/04/12 00:30:39;;;;;;;;;;;11.80;69.50;;;;;;2049252;29;720;-50
2021/04/12 00:32:00;;;;;;;;;;;11.80;70.30;;;;;;2049389;28;1352;-49
2021/04/12 00:33:22;;;;;;;;;;;11.80;69.50;;;;;;2057060;28;762;-49
2021/04/12 00:34:53;;;;;;;;;;;11.80;70.20;;;;;;2057443;28;1934;-49
2021/04/12 00:36:23;;;;;;;;;;;11.80;69.50;;;;;;2059232;28;769;-49
2021/04/12 00:37:47;;;;;;;;;;;11.80;70.20;;;;;;2057691;28;1124;-50
2021/04/12 00:39:09;;;;;;;;;;;11.80;69.40;;;;;;2059995;28;1484;-48
2021/04/12 00:40:28;;;;;;;;;;;11.80;69.30;;;;;;2065670;28;734;-50
2021/04/12 00:41:59;;;;;;;;;;;11.80;69.30;;;;;;2060771;28;1641;-49
2021/04/12 00:43:28;;;;;;;;;;;11.80;69.20;;;;;;2057725;28;728;-50
2021/04/12 00:44:53;;;;;;;;;;;11.80;69.20;;;;;;2057199;28;906;-51
2021/04/12 00:46:30;;;;;;;;;;;11.80;69.90;;;;;;2057439;28;727;-49
2021/04/12 00:47:52;;;;;;;;;;;11.80;69.10;;;;;;2048918;29;738;-49
2021/04/12 00:49:21;;;;;;;;;;;11.80;69.10;;;;;;2060810;28;1643;-49
2021/04/12 00:50:46;;;;;;;;;;;11.80;69.00;;;;;;2061193;28;1994;-51
2021/04/12 00:52:21;;;;;;;;;;;11.80;69.00;;;;;;2062184;28;1429;-50
2021/04/12 00:53:40;;;;;;;;;;;11.80;69.60;;;;;;2071957;28;1220;-49
2021/04/12 00:55:10;;;;;;;;;;;11.80;68.80;;;;;;2064937;28;1914;-48
2021/04/12 00:56:32;;;;;;;;;;;11.80;68.80;;;;;;2062243;28;1486;-49
2021/04/12 00:58:06;;;;;;;;;;;11.80;69.50;;;;;;2062106;28;688;-49
2021/04/12 00:59:30;;;;;;;;;;;11.80;68.70;;;;;;2064132;28;1520;-50
2021/04/12 01:01:10;;;;;;;;;;;11.80;68.60;;;;;;2055559;28;1197;-49
2021/04/12 01:02:32;;;;;;;;;;;11.90;68.70;;;;;;2042645;28;1324;-49
2021/04/12 01:03:58;;;;;;;;;;;11.80;68.60;;;;;;2062098;28;765;-49
2021/04/12 01:05:25;;;;;;;;;;;11.80;68.50;;;;;;2065132;28;730;-49
2021/04/12 01:06:45;;;;;;;;;;;11.80;68.60;;;;;;2064904;28;951;-52
2021/04/12 01:08:37;;;;;;;;;;;11.80;68.50;;;;;;2056934;28;915;-49
2021/04/12 01:10:11;;;;;;;;;;;11.80;68.60;;;;;;2052368;28;2296;-50
2021/04/12 01:11:40;;;;;;;;;;;11.80;68.60;;;;;;2062465;28;1552;-49
2021/04/12 01:12:59;;;;;;;;;;;11.80;68.50;;;;;;2063373;28;739;-48
2021/04/12 01:14:37;;;;;;;;;;;11.80;68.50;;;;;;2065609;28;1899;-49
2021/04/12 01:16:05;;;;;;;;;;;11.80;68.50;;;;;;2065558;28;789;-50
2021/04/12 01:17:44;;;;;;;;;;;11.80;68.50;;;;;;2065445;28;722;-49
2021/04/12 01:19:03;;;;;;;;;;;11.80;68.60;;;;;;2064918;28;1630;-49
2021/04/12 01:20:37;;;;;;;;;;;11.80;68.50;;;;;;2065232;28;702;-49
2021/04/12 01:22:15;;;;;;;;;;;11.80;68.50;;;;;;2064761;28;767;-49
2021/04/12 01:23:35;;;;;;;;;;;11.80;68.50;;;;;;2064721;28;782;-49
2021/04/12 01:25:09;;;;;;;;;;;11.80;68.50;;;;;;2065287;28;776;-49
2021/04/12 01:26:28;;;;;;;;;;;11.80;69.20;;;;;;2064961;28;710;-50
2021/04/12 01:28:06;;;;;;;;;;;11.80;68.50;;;;;;2065367;28;751;-49
2021/04/12 01:29:44;;;;;;;;;;;11.80;68.50;;;;;;2058189;28;1928;-49
2021/04/12 01:31:22;;;;;;;;;;;11.80;68.50;;;;;;2056870;28;722;-51
2021/04/12 01:33:00;;;;;;;;;;;11.80;68.50;;;;;;2057216;28;1531;-50
2021/04/12 01:34:38;;;;;;;;;;;11.80;69.20;;;;;;2057129;28;1918;-49
2021/04/12 01:36:16;;;;;;;;;;;11.80;68.50;;;;;;2056979;28;729;-49
2021/04/12 01:37:44;;;;;;;;;;;11.80;68.50;;;;;;2063930;28;1092;-48
2021/04/12 01:39:22;;;;;;;;;;;11.80;68.50;;;;;;2064156;28;1636;-49
2021/04/12 01:40:58;;;;;;;;;;;11.80;68.40;;;;;;2062285;28;1211;-49
2021/04/12 01:42:32;;;;;;;;;;;11.80;68.30;;;;;;2063366;28;1440;-51
2021/04/12 01:44:12;;;;;;;;;;;11.80;68.30;;;;;;2065249;28;1116;-50
2021/04/12 01:45:39;;;;;;;;;;;11.80;68.40;;;;;;2071104;28;940;-49
2021/04/12 01:47:16;;;;;;;;;;;11.80;68.30;;;;;;2065495;28;1571;-50
2021/04/12 01:48:50;;;;;;;;;;;11.80;68.30;;;;;;2071815;28;772;-49
2021/04/12 01:50:09;;;;;;;;;;;11.70;68.30;;;;;;2057387;28;737;-49
2021/04/12 01:51:37;;;;;;;;;;;11.80;68.40;;;;;;2056498;28;779;-50
2021/04/12 01:53:11;;;;;;;;;;;11.80;69.10;;;;;;2060038;28;1496;-50
2021/04/12 01:54:33;;;;;;;;;;;11.80;68.40;;;;;;2062406;28;1894;-50
2021/04/12 01:56:25;;;;;;;;;;;11.80;68.30;;;;;;2058333;28;1207;-50
2021/04/12 01:58:03;;;;;;;;;;;11.80;68.40;;;;;;2036776;29;1397;-48
2021/04/12 01:59:22;;;;;;;;;;;11.80;68.40;;;;;;2064124;28;1441;-50
2021/04/12 02:00:49;;;;;;;;;;;11.80;68.50;;;;;;2062664;28;1072;-49
2021/04/12 02:02:13;;;;;;;;;;;11.80;68.60;;;;;;2066941;28;1394;-49
2021/04/12 02:03:32;;;;;;;;;;;11.80;68.60;;;;;;2054321;28;1298;-49
2021/04/12 02:05:04;;;;;;;;;;;11.70;68.50;;;;;;2061260;28;1252;-49
2021/04/12 02:06:43;;;;;;;;;;;11.80;68.50;;;;;;2062332;28;1198;-49
2021/04/12 02:08:20;;;;;;;;;;;11.80;68.30;;;;;;2054011;28;1424;-49
2021/04/12 02:09:41;;;;;;;;;;;11.80;68.20;;;;;;2067321;28;1538;-50
2021/04/12 02:11:03;;;;;;;;;;;11.80;68.20;;;;;;2069248;28;1102;-49
2021/04/12 02:12:23;;;;;;;;;;;11.80;68.10;;;;;;2064208;28;1433;-50
2021/04/12 02:13:46;;;;;;;;;;;11.80;68.00;;;;;;2058584;28;1340;-50
2021/04/12 02:15:07;;;;;;;;;;;11.80;68.00;;;;;;2061638;28;1986;-50
2021/04/12 02:16:29;;;;;;;;;;;11.80;67.90;;;;;;2068982;28;1493;-51
2021/04/12 02:17:51;;;;;;;;;;;11.80;68.60;;;;;;2062766;28;1103;-50
2021/04/12 02:19:14;;;;;;;;;;;11.80;67.90;;;;;;2061419;28;1381;-49
2021/04/12 02:20:36;;;;;;;;;;;11.80;67.80;;;;;;2056788;28;1240;-49
2021/04/12 02:22:14;;;;;;;;;;;11.80;67.80;;;;;;2060135;28;1147;-50
2021/04/12 02:23:47;;;;;;;;;;;11.80;67.80;;;;;;2056754;28;1469;-50
2021/04/12 02:25:17;;;;;;;;;;;11.80;67.80;;;;;;2068157;28;1200;-49
2021/04/12 02:26:55;;;;;;;;;;;11.80;67.80;;;;;;2059260;28;1224;-48
2021/04/12 02:28:33;;;;;;;;;;;11.80;68.50;;;;;;2056326;28;1298;-49
2021/04/12 02:29:53;;;;;;;;;;;11.80;67.80;;;;;;2060951;28;1229;-50
2021/04/12 02:31:21;;;;;;;;;;;11.80;67.80;;;;;;2059124;28;1293;-50
2021/04/12 02:32:55;;;;;;;;;;;11.80;67.80;;;;;;2058212;28;1561;-50
2021/04/12 02:34:29;;;;;;;;;;;11.80;67.80;;;;;;2062955;28;1362;-49
2021/04/12 02:36:01;;;;;;;;;;;11.80;67.90;;;;;;2061212;28;1126;-50
2021/04/12 02:37:41;;;;;;;;;;;11.80;67.90;;;;;;2072279;28;1237;-49
2021/04/12 02:39:02;;;;;;;;;;;11.70;67.80;;;;;;2063208;28;1510;-49
2021/04/12 02:40:45;;;;;;;;;;;11.80;68.00;;;;;;2067737;28;1116;-48
2021/04/12 02:42:10;;;;;;;;;;;11.70;67.90;;;;;;2061528;28;1523;-49
2021/04/12 02:43:48;;;;;;;;;;;11.70;68.00;;;;;;2063846;28;1409;-49
2021/04/12 02:45:20;;;;;;;;;;;11.70;67.90;;;;;;2057509;28;1264;-49
2021/04/12 02:46:48;;;;;;;;;;;11.70;68.00;;;;;;2059315;28;1363;-49
2021/04/12 02:48:17;;;;;;;;;;;11.70;68.00;;;;;;2051206;28;1264;-49
2021/04/12 02:49:36;;;;;;;;;;;11.70;68.00;;;;;;2059233;28;1218;-48
2021/04/12 02:51:10;;;;;;;;;;;11.70;68.00;;;;;;2064080;28;1328;-48
2021/04/12 02:52:36;;;;;;;;;;;11.70;68.80;;;;;;2055502;28;1453;-49
2021/04/12 02:54:14;;;;;;;;;;;11.70;68.10;;;;;;2066868;28;1291;-49
2021/04/12 02:55:42;;;;;;;;;;;11.70;68.10;;;;;;2062525;28;1406;-48
2021/04/12 02:57:03;;;;;;;;;;;11.70;68.10;;;;;;2070816;28;1381;-48
2021/04/12 02:58:23;;;;;;;;;;;11.70;68.20;;;;;;2065748;28;1289;-48
2021/04/12 02:59:48;;;;;;;;;;;11.70;68.20;;;;;;2060521;28;1295;-48
2021/04/12 03:01:17;;;;;;;;;;;11.70;68.20;;;;;;2060632;28;1496;-52
2021/04/12 03:02:39;;;;;;;;;;;11.70;68.10;;;;;;2057377;28;1446;-49
2021/04/12 03:04:05;;;;;;;;;;;11.70;68.20;;;;;;2056749;28;1180;-48
2021/04/12 03:05:24;;;;;;;;;;;11.70;68.20;;;;;;2067331;28;1279;-49
2021/04/12 03:07:02;;;;;;;;;;;11.70;68.20;;;;;;2064515;28;1277;-48
2021/04/12 03:08:40;;;;;;;;;;;11.60;68.80;;;;;;2061874;28;1240;-49
2021/04/12 03:10:00;;;;;;;;;;;11.60;68.10;;;;;;2063803;28;1229;-48
2021/04/12 03:11:34;;;;;;;;;;;11.60;68.10;;;;;;2063407;28;1080;-49
2021/04/12 03:12:56;;;;;;;;;;;11.60;68.00;;;;;;2063373;28;1433;-48
2021/04/12 03:14:24;;;;;;;;;;;11.60;68.10;;;;;;2051913;28;1337;-48
2021/04/12 03:16:04;;;;;;;;;;;11.60;68.80;;;;;;2061531;28;1108;-48
2021/04/12 03:17:32;;;;;;;;;;;11.60;68.10;;;;;;2058218;28;1060;-50
2021/04/12 03:18:58;;;;;;;;;;;11.60;68.90;;;;;;2059336;28;1686;-48
2021/04/12 03:20:26;;;;;;;;;;;11.60;68.10;;;;;;2061140;28;1275;-48
2021/04/12 03:22:04;;;;;;;;;;;11.60;68.20;;;;;;2060533;28;1182;-48
2021/04/12 03:23:23;;;;;;;;;;;11.60;68.10;;;;;;2063308;28;1228;-48
2021/04/12 03:25:00;;;;;;;;;;;11.60;68.90;;;;;;2063873;28;1163;-48
2021/04/12 03:26:38;;;;;;;;;;;11.60;68.10;;;;;;2064771;28;1294;-49
2021/04/12 03:28:17;;;;;;;;;;;11.60;68.20;;;;;;2063358;28;1123;-49
2021/04/12 03:29:46;;;;;;;;;;;11.60;68.20;;;;;;2060428;28;1405;-48
2021/04/12 03:31:26;;;;;;;;;;;11.60;68.30;;;;;;2062741;28;1300;-50
2021/04/12 03:32:50;;;;;;;;;;;11.60;68.30;;;;;;2059148;28;1414;-54
2021/04/12 03:34:25;;;;;;;;;;;11.60;68.30;;;;;;2069101;28;1230;-53
2021/04/12 03:35:48;;;;;;;;;;;11.50;68.20;;;;;;2064708;28;1351;-53
2021/04/12 03:37:22;;;;;;;;;;;11.50;68.30;;;;;;2054844;28;1145;-53
2021/04/12 03:38:56;;;;;;;;;;;11.50;68.30;;;;;;2060230;28;1489;-50
2021/04/12 03:40:36;;;;;;;;;;;11.50;68.40;;;;;;2057767;28;1123;-51
2021/04/12 03:42:04;;;;;;;;;;;11.50;68.90;;;;;;2063676;28;1102;-53
2021/04/12 03:43:35;;;;;;;;;;;11.60;69.60;;;;;;2062120;28;1312;-52
2021/04/12 03:44:57;;;;;;;;;;;11.60;70.00;;;;;;2069503;28;1403;-50
2021/04/12 03:46:26;;;;;;;;;;;11.60;70.10;;;;;;2063161;28;1312;-52
2021/04/12 03:47:45;;;;;;;;;;;11.60;69.80;;;;;;2064633;28;1239;-49
2021/04/12 03:49:13;;;;;;;;;;;11.60;69.10;;;;;;2062471;28;1554;-52
2021/04/12 03:50:51;;;;;;;;;;;11.60;68.90;;;;;;2061386;28;1302;-52
2021/04/12 03:52:10;;;;;;;;;;;11.60;68.50;;;;;;2062371;28;1492;-50
2021/04/12 03:53:48;;;;;;;;;;;11.50;68.10;;;;;;2061373;28;1297;-54
2021/04/12 03:55:12;;;;;;;;;;;11.50;68.10;;;;;;2063325;28;1962;-54
2021/04/12 03:56:31;;;;;;;;;;;11.50;68.00;;;;;;2052156;28;1614;-53
2021/04/12 03:58:00;;;;;;;;;;;11.50;68.00;;;;;;2059410;28;1288;-53
2021/04/12 03:59:24;;;;;;;;;;;11.50;68.00;;;;;;2061162;28;1432;-51
2021/04/12 04:01:01;;;;;;;;;;;11.50;68.80;;;;;;2066859;28;1239;-50
2021/04/12 04:02:30;;;;;;;;;;;11.50;68.10;;;;;;2061885;28;1520;-52
2021/04/12 04:03:53;;;;;;;;;;;11.50;68.20;;;;;;2059871;28;1764;-52
2021/04/12 04:05:28;;;;;;;;;;;11.50;68.20;;;;;;2054595;28;1325;-56
2021/04/12 04:07:00;;;;;;;;;;;11.50;68.30;;;;;;2063019;28;1446;-53
2021/04/12 04:08:29;;;;;;;;;;;11.40;68.30;;;;;;2064160;28;1269;-52
2021/04/12 04:09:52;;;;;;;;;;;11.40;68.30;;;;;;2062707;28;1353;-49
2021/04/12 04:11:17;;;;;;;;;;;11.40;68.30;;;;;;2057988;28;1255;-52
2021/04/12 04:12:36;;;;;;;;;;;11.40;68.30;;;;;;2060920;28;1417;-52
2021/04/12 04:14:07;;;;;;;;;;;11.40;68.40;;;;;;2063399;28;1285;-52
2021/04/12 04:15:35;;;;;;;;;;;11.40;69.20;;;;;;2065392;28;1384;-53
2021/04/12 04:16:54;;;;;;;;;;;11.40;68.40;;;;;;2062916;28;1249;-54
2021/04/12 04:18:16;;;;;;;;;;;11.40;68.50;;;;;;2065150;28;1205;-54
2021/04/12 04:19:51;;;;;;;;;;;11.40;68.40;;;;;;2064781;28;1291;-52
2021/04/12 04:21:17;;;;;;;;;;;11.40;68.50;;;;;;2064185;28;1165;-49
2021/04/12 04:22:48;;;;;;;;;;;11.40;69.20;;;;;;2064162;28;1425;-54
2021/04/12 04:24:26;;;;;;;;;;;11.40;68.50;;;;;;2055523;28;1269;-53
2021/04/12 04:25:55;;;;;;;;;;;11.40;68.50;;;;;;2064534;28;1129;-51
2021/04/12 04:27:34;;;;;;;;;;;11.40;68.60;;;;;;2060208;28;1175;-52
2021/04/12 04:29:14;;;;;;;;;;;11.40;68.60;;;;;;2064123;28;1375;-51
2021/04/12 04:30:49;;;;;;;;;;;11.40;68.60;;;;;;2048378;28;1464;-53
2021/04/12 04:32:12;;;;;;;;;;;11.40;68.60;;;;;;2064076;28;1401;-51
2021/04/12 04:33:34;;;;;;;;;;;11.40;69.40;;;;;;2062714;28;1415;-49
2021/04/12 04:35:13;;;;;;;;;;;11.30;68.50;;;;;;2062923;28;1977;-49
2021/04/12 04:36:32;;;;;;;;;;;11.30;68.50;;;;;;2061218;28;864;-50
2021/04/12 04:38:17;;;;;;;;;;;11.30;68.50;;;;;;2061967;28;1120;-50
2021/04/12 04:39:55;;;;;;;;;;;11.30;69.20;;;;;;2062227;28;1591;-50
2021/04/12 04:41:33;;;;;;;;;;;11.30;68.60;;;;;;2061043;28;924;-50
2021/04/12 04:42:55;;;;;;;;;;;11.30;68.60;;;;;;2062777;28;1480;-50
2021/04/12 04:44:27;;;;;;;;;;;11.30;68.60;;;;;;2063470;28;1215;-50
2021/04/12 04:46:13;;;;;;;;;;;11.30;68.60;;;;;;2065461;28;1081;-50
2021/04/12 04:47:50;;;;;;;;;;;11.30;68.60;;;;;;2050826;28;1449;-50
2021/04/12 04:49:11;;;;;;;;;;;11.30;68.70;;;;;;2062991;28;1587;-51
2021/04/12 04:50:33;;;;;;;;;;;11.30;68.70;;;;;;2063742;28;1122;-50
2021/04/12 04:51:55;;;;;;;;;;;11.30;68.70;;;;;;2058666;28;1248;-50
2021/04/12 04:53:17;;;;;;;;;;;11.30;68.70;;;;;;2063814;28;1251;-50
2021/04/12 04:54:49;;;;;;;;;;;11.30;68.70;;;;;;2060257;28;1981;-49
2021/04/12 04:56:08;;;;;;;;;;;11.30;68.80;;;;;;2062978;28;1247;-51
2021/04/12 04:57:43;;;;;;;;;;;11.30;69.70;;;;;;2063799;28;1155;-50
2021/04/12 04:59:14;;;;;;;;;;;11.30;70.20;;;;;;2059335;28;1279;-50
2021/04/12 05:00:47;;;;;;;;;;;11.40;70.60;;;;;;2061946;28;1155;-50
2021/04/12 05:02:21;;;;;;;;;;;11.40;69.30;;;;;;2052862;28;1406;-50
2021/04/12 05:03:59;;;;;;;;;;;11.40;68.60;;;;;;2067420;28;1186;-52
2021/04/12 05:05:28;;;;;;;;;;;11.50;68.60;;;;;;2049200;28;1062;-54
2021/04/12 05:06:53;;;;;;;;;;;11.50;68.50;;;;;;2059794;28;1326;-54
2021/04/12 05:08:20;;;;;;;;;;;11.50;68.20;;;;;;2058418;28;1249;-53
2021/04/12 05:09:57;;;;;;;;;;;11.60;67.80;;;;;;2066332;28;1277;-54
2021/04/12 05:11:36;;;;;;;;;;;11.60;67.70;;;;;;2064672;28;974;-52
2021/04/12 05:13:14;;;;;;;;;;;11.60;67.20;;;;;;2064128;28;1395;-53
2021/04/12 05:14:52;;;;;;;;;;;11.70;67.00;;;;;;2063208;28;1894;-50
2021/04/12 05:16:17;;;;;;;;;;;11.70;66.80;;;;;;2061426;28;1252;-51
2021/04/12 05:17:51;;;;;;;;;;;11.80;66.50;;;;;;2059328;28;1164;-51
2021/04/12 05:19:13;;;;;;;;;;;11.80;66.20;;;;;;2057974;28;1351;-52
2021/04/12 05:20:32;;;;;;;;;;;11.80;66.40;;;;;;2062738;28;1136;-54
2021/04/12 05:21:51;;;;;;;;;;;11.90;65.60;;;;;;2063529;28;1237;-52
2021/04/12 05:23:14;;;;;;;;;;;12.00;65.30;;;;;;2062713;28;1167;-52
2021/04/12 05:24:35;;;;;;;;;;;12.00;64.90;;;;;;2064755;28;1246;-51
2021/04/12 05:26:06;;;;;;;;;;;12.10;64.60;;;;;;2055676;28;994;-53
2021/04/12 05:27:26;;;;;;;;;;;12.10;64.30;;;;;;2060080;28;1567;-52
2021/04/12 05:28:51;;;;;;;;;;;12.20;64.10;;;;;;2064568;28;1145;-50
2021/04/12 05:30:30;;;;;;;;;;;12.20;63.70;;;;;;2064406;28;1315;-52
2021/04/12 05:31:49;;;;;;;;;;;12.30;63.30;;;;;;2062565;28;1224;-52
2021/04/12 05:33:20;;;;;;;;;;;12.40;63.10;;;;;;2061813;28;1397;-51
2021/04/12 05:34:44;;;;;;;;;;;12.40;62.80;;;;;;2057993;28;1894;-51
2021/04/12 05:36:07;;;;;;;;;;;12.50;62.70;;;;;;2055678;28;1129;-57
2021/04/12 05:37:39;;;;;;;;;;;12.50;62.20;;;;;;2055509;28;1188;-52
2021/04/12 05:39:07;;;;;;;;;;;12.60;62.00;;;;;;2060570;28;1465;-53
2021/04/12 05:40:26;;;;;;;;;;;12.70;61.80;;;;;;2071654;28;1425;-51
2021/04/12 05:41:55;;;;;;;;;;;12.70;61.50;;;;;;2064697;28;1176;-52
2021/04/12 05:43:18;;;;;;;;;;;12.80;61.10;;;;;;2062286;28;1116;-51
2021/04/12 05:44:46;;;;;;;;;;;12.90;61.00;;;;;;2058397;28;1245;-50
2021/04/12 05:46:14;;;;;;;;;;;12.90;60.60;;;;;;2067988;28;1346;-50
2021/04/12 05:47:52;;;;;;;;;;;13.00;60.50;;;;;;2060681;28;1465;-51
2021/04/12 05:49:23;;;;;;;;;;;13.10;60.20;;;;;;2063798;28;1369;-50
2021/04/12 05:51:00;;;;;;;;;;;13.10;60.50;;;;;;2056095;28;1430;-51
2021/04/12 05:52:19;;;;;;;;;;;13.20;59.60;;;;;;2061705;28;1437;-51
2021/04/12 05:53:47;;;;;;;;;;;13.30;59.50;;;;;;2064547;28;1311;-51
2021/04/12 05:55:06;;;;;;;;;;;13.40;59.80;;;;;;2064081;28;2001;-50
2021/04/12 05:56:31;;;;;;;;;;;13.40;59.00;;;;;;2062940;28;1475;-51
2021/04/12 05:57:59;;;;;;;;;;;13.50;59.00;;;;;;2064691;28;1098;-50
2021/04/12 05:59:33;;;;;;;;;;;13.60;58.90;;;;;;2058357;28;1259;-50
2021/04/12 06:01:10;;;;;;;;;;;13.60;58.80;;;;;;2068418;28;1572;-50
2021/04/12 06:02:48;;;;;;;;;;;13.70;58.60;;;;;;2061361;28;1366;-50
2021/04/12 06:04:25;;;;;;;;;;;13.70;58.40;;;;;;2071437;28;1296;-51
2021/04/12 06:06:03;;;;;;;;;;;13.80;58.40;;;;;;2060910;28;1141;-50
2021/04/12 06:07:41;;;;;;;;;;;13.80;58.30;;;;;;2062998;28;1006;-53
2021/04/12 06:09:19;;;;;;;;;;;13.90;58.20;;;;;;2063622;28;1255;-50
2021/04/12 06:10:58;;;;;;;;;;;13.90;58.20;;;;;;2063683;28;1440;-52
2021/04/12 06:12:36;;;;;;;;;;;14.00;58.20;;;;;;2063535;28;1557;-50
2021/04/12 06:14:04;;;;;;;;;;;14.00;58.00;;;;;;2061923;28;1294;-50
2021/04/12 06:15:36;;;;;;;;;;;14.10;58.50;;;;;;2061765;28;1966;-51
2021/04/12 06:17:01;;;;;;;;;;;14.20;58.00;;;;;;2061445;28;1526;-50
2021/04/12 06:18:35;;;;;;;;;;;14.20;57.70;;;;;;2062466;28;1406;-49
2021/04/12 06:20:03;;;;;;;;;;;14.20;57.60;;;;;;2062900;28;1251;-51
2021/04/12 06:21:33;;;;;;;;;;;14.30;58.10;;;;;;2067740;28;1105;-52
2021/04/12 06:23:01;;;;;;;;;;;14.30;57.50;;;;;;2062165;28;1477;-50
2021/04/12 06:24:32;;;;;;;;;;;14.40;57.60;;;;;;2060447;28;1596;-51
2021/04/12 06:25:57;;;;;;;;;;;14.40;57.60;;;;;;2062814;28;1175;-54
2021/04/12 06:27:34;;;;;;;;;;;14.40;57.80;;;;;;2055375;28;1425;-48
2021/04/12 06:29:09;;;;;;;;;;;14.50;57.80;;;;;;2066652;28;1244;-51
2021/04/12 06:30:47;;;;;;;;;;;14.50;57.90;;;;;;2061920;28;1083;-53
2021/04/12 06:32:09;;;;;;;;;;;14.40;57.70;;;;;;2061794;28;1385;-52
2021/04/12 06:33:37;;;;;;;;;;;14.40;57.80;;;;;;2061486;28;996;-51
2021/04/12 06:35:15;;;;;;;;;;;14.40;58.50;;;;;;2061912;28;1997;-51
2021/04/12 06:36:38;;;;;;;;;;;14.40;58.10;;;;;;2061212;28;1132;-51
2021/04/12 06:38:17;;;;;;;;;;;14.30;58.30;;;;;;2062186;28;1345;-52
2021/04/12 06:39:54;;;;;;;;;;;14.30;58.40;;;;;;2068648;28;1408;-52
2021/04/12 06:41:32;;;;;;;;;;;14.30;58.50;;;;;;2064019;28;1147;-54
2021/04/12 06:43:11;;;;;;;;;;;14.30;58.70;;;;;;2063760;28;1535;-51
2021/04/12 06:44:39;;;;;;;;;;;14.30;58.80;;;;;;2063880;28;1283;-51
2021/04/12 06:46:17;;;;;;;;;;;14.30;58.90;;;;;;2063828;28;1316;-52
2021/04/12 06:47:42;;;;;;;;;;;14.30;59.00;;;;;;2063005;28;1102;-52
2021/04/12 06:49:02;;;;;;;;;;;14.30;59.10;;;;;;2063023;28;1617;-51
2021/04/12 06:50:29;;;;;;;;;;;14.30;59.10;;;;;;2062329;28;1251;-50
2021/04/12 06:52:03;;;;;;;;;;;14.30;59.10;;;;;;2067312;28;1243;-51
2021/04/12 06:53:26;;;;;;;;;;;14.30;59.20;;;;;;2063948;28;1005;-50
2021/04/12 06:54:54;;;;;;;;;;;14.30;59.30;;;;;;2063842;28;1919;-50
2021/04/12 06:56:16;;;;;;;;;;;14.30;59.40;;;;;;2062293;28;1126;-51
2021/04/12 06:57:47;;;;;;;;;;;14.20;59.50;;;;;;2062875;28;1041;-53
2021/04/12 06:59:10;;;;;;;;;;;14.20;59.60;;;;;;2060050;28;1169;-49
2021/04/12 07:00:31;;;;;;;;;;;14.20;59.60;;;;;;2063768;28;1147;-53
2021/04/12 07:01:51;;;;;;;;;;;14.20;59.70;;;;;;2062456;28;1186;-52
2021/04/12 07:03:29;;;;;;;;;;;14.20;60.60;;;;;;2061468;28;1344;-48
2021/04/12 07:05:08;;;;;;;;;;;14.20;60.00;;;;;;2062000;28;1031;-51
2021/04/12 07:06:40;;;;;;;;;;;14.20;60.30;;;;;;2063378;28;1396;-49
2021/04/12 07:08:17;;;;;;;;;;;14.10;60.40;;;;;;2070122;28;1198;-49
2021/04/12 07:09:55;;;;;;;;;;;14.10;60.50;;;;;;2055979;28;1299;-51
2021/04/12 07:11:50;;;;;;;;;;;14.10;60.60;;;;;;2057211;28;1331;-52
2021/04/12 07:13:09;;;;;;;;;;;14.10;61.40;;;;;;2052188;28;1321;-51
2021/04/12 07:14:46;;;;;;;;;;;14.10;60.80;;;;;;2050279;28;1343;-51
2021/04/12 07:16:15;;;;;;;;;;;14.10;60.90;;;;;;2062969;28;1639;-49
2021/04/12 07:17:34;;;;;;;;;;;14.10;60.90;;;;;;2065946;28;1755;-51
2021/04/12 07:19:12;;;;;;;;;;;14.20;61.00;;;;;;2064226;28;1210;-51
2021/04/12 07:20:55;;;;;;;;;;;14.20;61.00;;;;;;2059631;28;1326;-53
2021/04/12 07:22:34;;;;;;;;;;;14.20;61.00;;;;;;2058618;28;1492;-51
2021/04/12 07:24:12;;;;;;;;;;;14.20;61.10;;;;;;2063784;28;1398;-49
2021/04/12 07:25:41;;;;;;;;;;;14.20;61.10;;;;;;2064976;28;1196;-49
2021/04/12 07:27:09;;;;;;;;;;;14.20;61.20;;;;;;2054843;28;1388;-49
2021/04/12 07:28:47;;;;;;;;;;;14.20;61.30;;;;;;2060519;28;1387;-51
2021/04/12 07:30:13;;;;;;;;;;;14.20;61.40;;;;;;2060515;28;1455;-49
2021/04/12 07:31:47;;;;;;;;;;;14.20;61.40;;;;;;2062096;28;1323;-52
2021/04/12 07:33:23;;;;;;;;;;;14.20;62.10;;;;;;2063798;28;1307;-49
2021/04/12 07:34:48;;;;;;;;;;;14.20;61.30;;;;;;2061585;28;1959;-52
2021/04/12 07:36:10;;;;;;;;;;;14.20;61.30;;;;;;2063037;28;1288;-51
2021/04/12 07:37:42;;;;;;;;;;;14.20;61.20;;;;;;2057765;28;1060;-49
2021/04/12 07:39:19;;;;;;;;;;;14.20;61.10;;;;;;2060256;28;1181;-49
2021/04/12 07:40:57;;;;;;;;;;;14.20;61.10;;;;;;2058405;28;1548;-50
2021/04/12 07:42:35;;;;;;;;;;;14.30;62.00;;;;;;2064878;28;1417;-50
2021/04/12 07:44:13;;;;;;;;;;;14.20;61.00;;;;;;2062290;28;1433;-50
2021/04/12 07:46:00;;;;;;;;;;;14.10;60.00;;;;;;2063838;28;1386;-50
2021/04/12 07:47:38;;;;;;;;;;;14.10;59.50;;;;;;2064358;28;931;-52
2021/04/12 07:48:58;;;;;;;;;;;14.10;59.10;;;;;;2063822;28;1182;-49
2021/04/12 07:50:30;;;;;;;;;;;14.10;59.00;;;;;;2065229;28;1233;-49
2021/04/12 07:52:07;;;;;;;;;;;14.20;59.00;;;;;;2064210;28;1236;-49
2021/04/12 07:53:45;;;;;;;;;;;14.20;58.90;;;;;;2063742;28;1129;-50
2021/04/12 07:55:13;;;;;;;;;;;14.20;58.90;;;;;;2063670;28;1915;-51
2021/04/12 07:56:51;;;;;;;;;;;14.20;58.90;;;;;;2062117;28;1339;-51
2021/04/12 07:58:10;;;;;;;;;;;14.20;59.50;;;;;;2065554;28;1506;-52
2021/04/12 07:59:39;;;;;;;;;;;14.20;58.90;;;;;;2063997;28;1235;-49
2021/04/12 08:01:16;;;;;;;;;;;14.20;59.00;;;;;;2062505;28;1422;-50
2021/04/12 08:02:54;;;;;;;;;;;14.10;59.50;;;;;;2062616;28;1433;-51
2021/04/12 08:04:32;;;;;;;;;;;14.10;59.10;;;;;;2056995;28;1088;-52
2021/04/12 08:06:10;;;;;;;;;;;14.10;59.20;;;;;;2062972;28;1290;-51
2021/04/12 08:07:48;;;;;;;;;;;14.10;59.40;;;;;;2062829;28;1179;-51
2021/04/12 08:09:26;;;;;;;;;;;14.10;60.00;;;;;;2060709;28;1149;-51
2021/04/12 08:10:52;;;;;;;;;;;14.10;59.60;;;;;;2064842;28;1119;-52
2021/04/12 08:12:37;;;;;;;;;;;14.10;59.80;;;;;;2057622;28;1422;-51
2021/04/12 08:14:15;;;;;;;;;;;14.10;60.60;;;;;;2062673;28;1303;-50
2021/04/12 08:15:52;;;;;;;;;;;14.10;60.00;;;;;;2062520;28;1919;-50
2021/04/12 08:17:26;;;;;;;;;;;14.10;60.10;;;;;;2071274;28;1318;-54
2021/04/12 08:19:02;;;;;;;;;;;14.10;60.10;;;;;;2068749;28;1227;-51
2021/04/12 08:20:32;;;;;;;;;;;14.10;60.20;;;;;;2064438;28;1294;-51
2021/04/12 08:21:58;;;;;;;;;;;14.20;60.20;;;;;;2066524;28;1133;-49
2021/04/12 08:23:45;;;;;;;;;;;14.20;60.10;;;;;;2064067;28;1468;-49
2021/04/12 08:25:20;;;;;;;;;;;14.20;60.00;;;;;;2060534;28;1158;-49
2021/04/12 08:27:03;;;;;;;;;;;14.20;59.90;;;;;;2065090;28;1191;-52
2021/04/12 08:28:40;;;;;;;;;;;14.30;59.90;;;;;;2045197;28;1160;-49
2021/04/12 08:30:18;;;;;;;;;;;14.30;59.80;;;;;;2060629;28;1569;-49
2021/04/12 08:31:56;;;;;;;;;;;14.30;59.80;;;;;;2062674;28;915;-50
2021/04/12 08:33:33;;;;;;;;;;;14.20;58.30;;;;;;2063185;28;1109;-49
2021/04/12 08:35:11;;;;;;;;;;;14.00;57.00;;;;;;2049074;28;1971;-49
2021/04/12 08:36:42;;;;;;;;;;;13.80;54.60;;;;;;2050106;28;1298;-46
2021/04/12 08:38:01;;;;;;;;;;;13.50;53.50;;;;;;2057895;28;1599;-49
2021/04/12 08:39:29;;;;;;;;;;;13.30;54.20;;;;;;2064174;28;1358;-49
2021/04/12 08:40:55;;;;;;;;;;;13.30;55.20;;;;;;2063616;28;1546;-50
2021/04/12 08:42:16;;;;;;;;;;;13.40;56.00;;;;;;2064230;28;1448;-51
2021/04/12 08:43:44;;;;;;;;;;;13.50;55.30;;;;;;2064579;28;1285;-49
2021/04/12 08:45:12;;;;;;;;;;;13.60;55.00;;;;;;2067767;28;1131;-49
2021/04/12 08:46:56;;;;;;;;;;;13.70;54.80;;;;;;2063163;28;1194;-51
2021/04/12 08:48:18;;;;;;;;;;;13.80;54.70;;;;;;2055986;28;1390;-48
2021/04/12 08:49:59;;;;;;;;;;;13.90;54.60;;;;;;2059976;28;1712;-49
2021/04/12 08:51:37;;;;;;;;;;;13.90;54.40;;;;;;2062174;28;1123;-51
2021/04/12 08:53:02;;;;;;;;;;;14.00;54.40;;;;;;2055458;28;1429;-49
2021/04/12 08:54:37;;;;;;;;;;;14.00;54.30;;;;;;2060638;28;1229;-52